createdAt,value
2022-10-08T00:00:12.592Z,0.00
2022-10-08T00:01:12.567Z,0.00
2022-10-08T00:02:12.623Z,0.00
2022-10-08T00:03:12.563Z,0.00
2022-10-08T00:04:12.655Z,0.00
2022-10-08T00:05:12.543Z,0.00
2022-10-08T00:06:12.535Z,0.00
2022-10-08T00:07:12.541Z,0.00
2022-10-08T00:08:12.530Z,0.00
2022-10-08T00:09:12.549Z,0.00
2022-10-08T00:10:12.490Z,0.00
2022-10-08T00:11:12.469Z,0.00
2022-10-08T00:12:12.473Z,0.00
2022-10-08T00:13:12.451Z,0.00
2022-10-08T00:14:12.495Z,0.00
2022-10-08T00:15:12.432Z,0.00
2022-10-08T00:16:12.672Z,0.00
2022-10-08T00:17:12.406Z,0.00
2022-10-08T00:18:12.377Z,0.00
2022-10-08T00:19:12.427Z,0.00
2022-10-08T00:20:12.367Z,0.00
2022-10-08T00:21:12.373Z,0.00
2022-10-08T00:22:12.346Z,0.00
2022-10-08T00:23:12.354Z,0.00
2022-10-08T00:24:12.386Z,0.00
2022-10-08T00:25:12.330Z,0.00
2022-10-08T00:26:12.306Z,0.00
2022-10-08T00:27:12.292Z,0.00
2022-10-08T00:28:12.294Z,0.00
2022-10-08T00:29:12.321Z,0.00
2022-10-08T00:30:12.244Z,0.00
2022-10-08T00:31:12.281Z,0.00
2022-10-08T00:32:12.265Z,0.00
2022-10-08T00:33:12.224Z,0.00
2022-10-08T00:34:12.265Z,0.00
2022-10-08T00:35:12.205Z,0.00
2022-10-08T00:36:12.199Z,0.00
2022-10-08T00:37:12.193Z,0.00
2022-10-08T00:38:12.168Z,0.00
2022-10-08T00:39:12.198Z,0.00
2022-10-08T00:40:12.159Z,0.00
2022-10-08T00:41:12.147Z,0.00
2022-10-08T00:42:12.134Z,0.00
2022-10-08T00:43:12.135Z,0.00
2022-10-08T00:44:12.167Z,0.00
2022-10-08T00:45:12.089Z,0.00
2022-10-08T00:46:12.147Z,0.00
2022-10-08T00:47:12.067Z,0.00
2022-10-08T00:48:12.058Z,0.00
2022-10-08T00:49:12.081Z,0.00
2022-10-08T00:50:12.032Z,0.00
2022-10-08T00:51:12.026Z,0.00
2022-10-08T00:52:12.031Z,0.00
2022-10-08T00:53:12.012Z,0.00
2022-10-08T00:54:12.069Z,0.00
2022-10-08T00:55:11.985Z,0.00
2022-10-08T00:56:11.961Z,0.00
2022-10-08T00:57:11.961Z,0.00
2022-10-08T00:58:11.954Z,0.00
2022-10-08T00:59:11.981Z,0.00
2022-10-08T01:00:11.931Z,0.00
2022-10-08T01:01:11.966Z,0.00
2022-10-08T01:02:11.956Z,0.00
2022-10-08T01:03:11.889Z,0.00
2022-10-08T01:04:11.921Z,0.00
2022-10-08T01:05:11.867Z,0.00
2022-10-08T01:06:11.852Z,0.00
2022-10-08T01:07:11.838Z,0.00
2022-10-08T01:08:11.848Z,0.00
2022-10-08T01:09:16.513Z,0.00
2022-10-08T01:10:12.823Z,0.00
2022-10-08T01:11:11.808Z,0.00
2022-10-08T01:12:11.791Z,0.00
2022-10-08T01:13:11.786Z,0.00
2022-10-08T01:14:11.828Z,0.00
2022-10-08T01:15:11.767Z,0.00
2022-10-08T01:16:11.832Z,0.00
2022-10-08T01:17:11.752Z,0.00
2022-10-08T01:18:11.716Z,0.00
2022-10-08T01:19:11.737Z,0.00
2022-10-08T01:20:11.695Z,0.00
2022-10-08T01:21:11.685Z,0.00
2022-10-08T01:22:11.694Z,0.00
2022-10-08T01:23:11.664Z,0.00
2022-10-08T01:24:11.706Z,0.00
2022-10-08T01:25:11.653Z,0.00
2022-10-08T01:26:11.630Z,0.00
2022-10-08T01:27:11.637Z,0.00
2022-10-08T01:28:11.659Z,0.00
2022-10-08T01:29:11.638Z,0.00
2022-10-08T01:30:11.586Z,0.00
2022-10-08T01:31:11.646Z,0.00
2022-10-08T01:32:11.582Z,0.00
2022-10-08T01:33:11.546Z,0.00
2022-10-08T01:34:11.582Z,0.00
2022-10-08T01:35:11.524Z,0.00
2022-10-08T01:36:11.532Z,0.00
2022-10-08T01:37:11.510Z,0.00
2022-10-08T01:38:11.498Z,0.00
2022-10-08T01:39:11.524Z,0.00
2022-10-08T01:40:11.471Z,0.00
2022-10-08T01:41:11.466Z,0.00
2022-10-08T01:42:11.458Z,0.00
2022-10-08T01:43:11.424Z,0.00
2022-10-08T01:44:11.466Z,0.00
2022-10-08T01:45:11.403Z,0.00
2022-10-08T01:46:11.478Z,0.00
2022-10-08T01:47:11.388Z,0.00
2022-10-08T01:48:11.401Z,0.00
2022-10-08T01:49:11.394Z,0.00
2022-10-08T01:50:11.348Z,0.00
2022-10-08T01:51:11.321Z,0.00
2022-10-08T01:52:11.342Z,0.00
2022-10-08T01:53:11.330Z,0.00
2022-10-08T01:54:11.364Z,0.00
2022-10-08T01:55:11.310Z,0.00
2022-10-08T01:56:11.300Z,0.00
2022-10-08T01:57:11.269Z,0.00
2022-10-08T01:58:11.272Z,0.00
2022-10-08T01:59:11.310Z,0.00
2022-10-08T02:00:11.226Z,0.00
2022-10-08T02:01:11.240Z,0.00
2022-10-08T02:02:11.324Z,0.00
2022-10-08T02:03:11.201Z,0.00
2022-10-08T02:04:11.240Z,0.00
2022-10-08T02:05:11.187Z,0.00
2022-10-08T02:06:11.173Z,0.00
2022-10-08T02:07:11.174Z,0.00
2022-10-08T02:08:11.156Z,0.00
2022-10-08T02:09:11.179Z,0.00
2022-10-08T02:10:11.133Z,0.00
2022-10-08T02:11:11.101Z,0.00
2022-10-08T02:12:11.115Z,0.00
2022-10-08T02:13:11.083Z,0.00
2022-10-08T02:14:11.128Z,0.00
2022-10-08T02:15:11.062Z,0.00
2022-10-08T02:16:11.106Z,0.00
2022-10-08T02:17:11.082Z,0.00
2022-10-08T02:18:11.032Z,0.00
2022-10-08T02:19:11.054Z,0.00
2022-10-08T02:20:10.997Z,0.00
2022-10-08T02:21:10.986Z,0.00
2022-10-08T02:22:10.990Z,0.00
2022-10-08T02:23:10.961Z,0.00
2022-10-08T02:24:11.033Z,0.00
2022-10-08T02:25:10.947Z,0.00
2022-10-08T02:26:10.947Z,0.00
2022-10-08T02:27:10.926Z,0.00
2022-10-08T02:28:10.963Z,0.00
2022-10-08T02:29:10.974Z,0.00
2022-10-08T02:30:10.885Z,0.00
2022-10-08T02:31:10.886Z,0.00
2022-10-08T02:32:10.906Z,0.00
2022-10-08T02:33:10.865Z,0.00
2022-10-08T02:34:10.906Z,0.00
2022-10-08T02:35:10.833Z,0.00
2022-10-08T02:36:10.828Z,0.00
2022-10-08T02:37:10.823Z,0.00
2022-10-08T02:38:10.816Z,0.00
2022-10-08T02:39:10.811Z,0.00
2022-10-08T02:40:10.820Z,0.00
2022-10-08T02:41:10.768Z,0.00
2022-10-08T02:42:10.774Z,0.00
2022-10-08T02:43:10.744Z,0.00
2022-10-08T02:44:10.751Z,0.00
2022-10-08T02:45:10.755Z,0.00
2022-10-08T02:46:10.758Z,0.00
2022-10-08T02:47:10.724Z,0.00
2022-10-08T02:48:10.697Z,0.00
2022-10-08T02:49:10.662Z,0.00
2022-10-08T02:50:10.711Z,0.00
2022-10-08T02:51:10.642Z,0.00
2022-10-08T02:52:10.653Z,0.00
2022-10-08T02:53:10.624Z,0.00
2022-10-08T02:54:10.629Z,0.00
2022-10-08T02:55:10.669Z,0.00
2022-10-08T02:56:10.621Z,0.00
2022-10-08T02:57:10.588Z,0.00
2022-10-08T02:58:10.601Z,0.00
2022-10-08T02:59:10.572Z,0.00
2022-10-08T03:00:10.590Z,0.00
2022-10-08T03:01:10.613Z,0.00
2022-10-08T03:02:10.602Z,0.00
2022-10-08T03:03:10.531Z,0.00
2022-10-08T03:04:10.510Z,0.00
2022-10-08T03:05:10.542Z,0.00
2022-10-08T03:06:10.495Z,0.00
2022-10-08T03:07:10.475Z,0.00
2022-10-08T03:08:10.475Z,0.00
2022-10-08T03:09:10.454Z,0.00
2022-10-08T03:10:10.487Z,0.00
2022-10-08T03:11:10.427Z,0.00
2022-10-08T03:12:10.435Z,0.00
2022-10-08T03:13:10.406Z,0.00
2022-10-08T03:14:10.396Z,0.00
2022-10-08T03:15:10.407Z,0.00
2022-10-08T03:16:10.469Z,0.00
2022-10-08T03:17:10.357Z,0.00
2022-10-08T03:18:10.355Z,0.00
2022-10-08T03:19:10.335Z,0.00
2022-10-08T03:20:10.360Z,0.00
2022-10-08T03:21:10.296Z,0.00
2022-10-08T03:22:10.316Z,0.00
2022-10-08T03:23:10.291Z,0.00
2022-10-08T03:24:10.298Z,0.00
2022-10-08T03:25:10.322Z,0.00
2022-10-08T03:26:10.254Z,0.00
2022-10-08T03:27:10.251Z,0.00
2022-10-08T03:28:10.261Z,0.00
2022-10-08T03:29:10.228Z,0.00
2022-10-08T03:30:10.243Z,0.00
2022-10-08T03:31:10.247Z,0.00
2022-10-08T03:32:10.194Z,0.00
2022-10-08T03:33:10.171Z,0.00
2022-10-08T03:34:10.165Z,0.00
2022-10-08T03:35:10.206Z,0.00
2022-10-08T03:36:10.146Z,0.00
2022-10-08T03:37:10.126Z,0.00
2022-10-08T03:38:10.125Z,0.00
2022-10-08T03:39:10.106Z,0.00
2022-10-08T03:40:10.146Z,0.00
2022-10-08T03:41:10.087Z,0.00
2022-10-08T03:42:10.069Z,0.00
2022-10-08T03:43:10.071Z,0.00
2022-10-08T03:44:10.050Z,0.00
2022-10-08T03:45:10.053Z,0.00
2022-10-08T03:46:10.088Z,0.00
2022-10-08T03:47:10.012Z,0.00
2022-10-08T03:48:10.040Z,0.00
2022-10-08T03:49:09.984Z,0.00
2022-10-08T03:50:10.003Z,0.00
2022-10-08T03:51:09.957Z,0.00
2022-10-08T03:52:09.947Z,0.00
2022-10-08T03:53:09.947Z,0.00
2022-10-08T03:54:09.934Z,0.00
2022-10-08T03:55:09.969Z,0.00
2022-10-08T03:56:09.913Z,0.00
2022-10-08T03:57:09.901Z,0.00
2022-10-08T03:58:09.870Z,0.00
2022-10-08T03:59:09.889Z,0.00
2022-10-08T04:00:09.897Z,0.00
2022-10-08T04:01:09.892Z,0.00
2022-10-08T04:02:09.872Z,0.00
2022-10-08T04:03:09.863Z,0.00
2022-10-08T04:04:09.833Z,0.00
2022-10-08T04:05:09.869Z,0.00
2022-10-08T04:06:09.810Z,0.00
2022-10-08T04:07:09.791Z,0.00
2022-10-08T04:08:09.800Z,0.00
2022-10-08T04:09:09.771Z,0.00
2022-10-08T04:10:09.806Z,0.00
2022-10-08T04:11:09.758Z,0.00
2022-10-08T04:12:09.728Z,0.00
2022-10-08T04:13:09.737Z,0.00
2022-10-08T04:14:09.709Z,0.00
2022-10-08T04:15:09.742Z,0.00
2022-10-08T04:16:09.708Z,0.00
2022-10-08T04:17:09.671Z,0.00
2022-10-08T04:18:09.671Z,0.00
2022-10-08T04:19:09.657Z,0.00
2022-10-08T04:20:09.673Z,0.00
2022-10-08T04:21:09.630Z,0.00
2022-10-08T04:22:09.615Z,0.00
2022-10-08T04:23:09.609Z,0.00
2022-10-08T04:24:09.607Z,0.00
2022-10-08T04:25:09.619Z,0.00
2022-10-08T04:26:09.567Z,0.00
2022-10-08T04:27:09.576Z,0.00
2022-10-08T04:28:09.576Z,0.00
2022-10-08T04:29:09.560Z,0.00
2022-10-08T04:30:09.586Z,0.00
2022-10-08T04:31:09.555Z,0.00
2022-10-08T04:32:09.507Z,0.00
2022-10-08T04:33:09.533Z,0.00
2022-10-08T04:34:09.498Z,0.00
2022-10-08T04:35:09.519Z,0.00
2022-10-08T04:36:09.469Z,0.00
2022-10-08T04:37:09.455Z,0.00
2022-10-08T04:38:09.450Z,0.00
2022-10-08T04:39:09.453Z,0.00
2022-10-08T04:40:09.469Z,4.00
2022-10-08T04:41:09.407Z,4.00
2022-10-08T04:42:09.397Z,4.00
2022-10-08T04:43:09.389Z,0.00
2022-10-08T04:44:09.367Z,4.00
2022-10-08T04:45:09.403Z,4.00
2022-10-08T04:46:09.396Z,4.00
2022-10-08T04:47:09.336Z,4.00
2022-10-08T04:48:09.312Z,8.00
2022-10-08T04:49:09.320Z,4.00
2022-10-08T04:50:09.339Z,8.00
2022-10-08T04:51:10.852Z,12.00
2022-10-08T04:52:09.270Z,8.00
2022-10-08T04:53:09.309Z,16.00
2022-10-08T04:54:09.244Z,20.00
2022-10-08T04:55:09.285Z,24.00
2022-10-08T04:56:09.223Z,28.00
2022-10-08T04:57:09.233Z,36.00
2022-10-08T04:58:09.204Z,40.00
2022-10-08T04:59:09.214Z,48.00
2022-10-08T05:00:23.952Z,56.00
2022-10-08T05:01:10.289Z,68.00
2022-10-08T05:02:09.144Z,72.00
2022-10-08T05:03:09.280Z,84.00
2022-10-08T05:04:09.149Z,96.00
2022-10-08T05:05:09.164Z,108.00
2022-10-08T05:06:09.122Z,124.00
2022-10-08T05:07:09.110Z,136.00
2022-10-08T05:08:09.109Z,152.00
2022-10-08T05:09:09.091Z,164.00
2022-10-08T05:10:09.123Z,180.00
2022-10-08T05:11:09.069Z,196.00
2022-10-08T05:12:09.033Z,212.00
2022-10-08T05:13:09.051Z,236.00
2022-10-08T05:14:09.028Z,264.00
2022-10-08T05:15:09.072Z,296.00
2022-10-08T05:16:09.063Z,332.00
2022-10-08T05:17:08.993Z,364.00
2022-10-08T05:18:08.990Z,400.00
2022-10-08T05:19:09.007Z,432.00
2022-10-08T05:20:08.993Z,460.00
2022-10-08T05:21:08.946Z,500.00
2022-10-08T05:22:08.922Z,548.00
2022-10-08T05:23:08.920Z,596.00
2022-10-08T05:24:08.910Z,640.00
2022-10-08T05:25:08.939Z,692.00
2022-10-08T05:26:08.886Z,752.00
2022-10-08T05:27:08.891Z,820.00
2022-10-08T05:28:08.914Z,884.00
2022-10-08T05:29:08.869Z,956.00
2022-10-08T05:30:08.879Z,1032.00
2022-10-08T05:31:08.871Z,1108.00
2022-10-08T05:32:08.828Z,1180.00
2022-10-08T05:33:08.800Z,1232.00
2022-10-08T05:34:08.812Z,1284.00
2022-10-08T05:35:08.847Z,1348.00
2022-10-08T05:36:08.768Z,1400.00
2022-10-08T05:37:08.784Z,1472.00
2022-10-08T05:38:08.747Z,1576.00
2022-10-08T05:39:08.754Z,1724.00
2022-10-08T05:40:08.784Z,1892.00
2022-10-08T05:41:08.728Z,2104.00
2022-10-08T05:42:08.709Z,2400.00
2022-10-08T05:43:08.709Z,2736.00
2022-10-08T05:44:08.693Z,3108.00
2022-10-08T05:45:08.729Z,3488.00
2022-10-08T05:46:08.719Z,3800.00
2022-10-08T05:47:08.669Z,4060.00
2022-10-08T05:48:08.648Z,4312.00
2022-10-08T05:49:08.634Z,4564.00
2022-10-08T05:50:08.638Z,4800.00
2022-10-08T05:51:08.594Z,5016.00
2022-10-08T05:52:08.586Z,5204.00
2022-10-08T05:53:09.347Z,5388.00
2022-10-08T05:54:08.578Z,5512.00
2022-10-08T05:55:08.599Z,5612.00
2022-10-08T05:56:08.553Z,5716.00
2022-10-08T05:57:08.546Z,5768.00
2022-10-08T05:58:08.533Z,5756.00
2022-10-08T05:59:08.557Z,5644.00
2022-10-08T06:00:08.545Z,5516.00
2022-10-08T06:01:08.506Z,5472.00
2022-10-08T06:02:08.495Z,5508.00
2022-10-08T06:03:08.474Z,5512.00
2022-10-08T06:04:09.243Z,5520.00
2022-10-08T06:05:08.572Z,5428.00
2022-10-08T06:06:08.427Z,5348.00
2022-10-08T06:07:08.437Z,5340.00
2022-10-08T06:08:08.415Z,5368.00
2022-10-08T06:09:08.416Z,5400.00
2022-10-08T06:10:08.421Z,5420.00
2022-10-08T06:11:08.388Z,5556.00
2022-10-08T06:12:08.364Z,5712.00
2022-10-08T06:13:08.369Z,5812.00
2022-10-08T06:14:08.356Z,5868.00
2022-10-08T06:15:08.389Z,5900.00
2022-10-08T06:16:08.357Z,5876.00
2022-10-08T06:17:08.309Z,5804.00
2022-10-08T06:18:08.305Z,5752.00
2022-10-08T06:19:08.329Z,5716.00
2022-10-08T06:20:08.327Z,5660.00
2022-10-08T06:21:08.259Z,5588.00
2022-10-08T06:22:08.250Z,5508.00
2022-10-08T06:23:08.238Z,5380.00
2022-10-08T06:24:08.225Z,5360.00
2022-10-08T06:25:08.265Z,5412.00
2022-10-08T06:26:08.208Z,5300.00
2022-10-08T06:27:08.212Z,5200.00
2022-10-08T06:28:08.220Z,5100.00
2022-10-08T06:29:08.189Z,5040.00
2022-10-08T06:30:08.318Z,5024.00
2022-10-08T06:31:08.189Z,5080.00
2022-10-08T06:32:08.158Z,5120.00
2022-10-08T06:33:08.142Z,5228.00
2022-10-08T06:34:08.131Z,5280.00
2022-10-08T06:35:08.196Z,5320.00
2022-10-08T06:36:08.119Z,5400.00
2022-10-08T06:37:08.097Z,5544.00
2022-10-08T06:38:08.066Z,5664.00
2022-10-08T06:39:08.075Z,5696.00
2022-10-08T06:40:08.115Z,5720.00
2022-10-08T06:41:08.061Z,5828.00
2022-10-08T06:42:08.029Z,5956.00
2022-10-08T06:43:08.006Z,6056.00
2022-10-08T06:44:08.002Z,6136.00
2022-10-08T06:45:08.066Z,6168.00
2022-10-08T06:46:07.990Z,6128.00
2022-10-08T06:47:08.023Z,5924.00
2022-10-08T06:48:08.000Z,5492.00
2022-10-08T06:49:07.962Z,5200.00
2022-10-08T06:50:07.988Z,5196.00
2022-10-08T06:51:07.926Z,5348.00
2022-10-08T06:52:07.915Z,5548.00
2022-10-08T06:53:07.895Z,5576.00
2022-10-08T06:54:08.751Z,5476.00
2022-10-08T06:55:07.939Z,5384.00
2022-10-08T06:56:07.861Z,5368.00
2022-10-08T06:57:07.886Z,5460.00
2022-10-08T06:58:07.842Z,5700.00
2022-10-08T06:59:07.862Z,6140.00
2022-10-08T07:00:07.884Z,6516.00
2022-10-08T07:01:07.872Z,6836.00
2022-10-08T07:02:07.836Z,7064.00
2022-10-08T07:03:07.789Z,7136.00
2022-10-08T07:04:07.801Z,7288.00
2022-10-08T07:05:07.820Z,7476.00
2022-10-08T07:06:07.769Z,7408.00
2022-10-08T07:07:07.754Z,7472.00
2022-10-08T07:08:07.746Z,7464.00
2022-10-08T07:09:07.744Z,7408.00
2022-10-08T07:10:07.745Z,7800.00
2022-10-08T07:11:07.720Z,7940.00
2022-10-08T07:12:07.691Z,8064.00
2022-10-08T07:13:07.691Z,8380.00
2022-10-08T07:14:07.668Z,8680.00
2022-10-08T07:15:07.709Z,8956.00
2022-10-08T07:16:07.745Z,8996.00
2022-10-08T07:17:07.634Z,8856.00
2022-10-08T07:18:07.630Z,9004.00
2022-10-08T07:19:07.615Z,9160.00
2022-10-08T07:20:07.612Z,9248.00
2022-10-08T07:21:07.629Z,9416.00
2022-10-08T07:22:07.572Z,9704.00
2022-10-08T07:23:07.558Z,9900.00
2022-10-08T07:24:07.546Z,10152.00
2022-10-08T07:25:07.552Z,10560.00
2022-10-08T07:26:07.586Z,10980.00
2022-10-08T07:27:07.528Z,11320.00
2022-10-08T07:28:07.539Z,11712.00
2022-10-08T07:29:07.517Z,11968.00
2022-10-08T07:30:07.492Z,12340.00
2022-10-08T07:31:07.558Z,12580.00
2022-10-08T07:32:07.464Z,12588.00
2022-10-08T07:33:07.487Z,12676.00
2022-10-08T07:34:07.452Z,12784.00
2022-10-08T07:35:07.429Z,12816.00
2022-10-08T07:36:07.462Z,12624.00
2022-10-08T07:37:07.422Z,12636.00
2022-10-08T07:38:07.385Z,12376.00
2022-10-08T07:39:07.388Z,12172.00
2022-10-08T07:40:07.388Z,12332.00
2022-10-08T07:41:07.427Z,12724.00
2022-10-08T07:42:07.358Z,11924.00
2022-10-08T07:43:07.346Z,11568.00
2022-10-08T07:44:07.350Z,11164.00
2022-10-08T07:45:07.327Z,10432.00
2022-10-08T07:46:07.391Z,10356.00
2022-10-08T07:47:07.302Z,10516.00
2022-10-08T07:48:07.282Z,10460.00
2022-10-08T07:49:07.280Z,10140.00
2022-10-08T07:50:07.262Z,9680.00
2022-10-08T07:51:07.276Z,9628.00
2022-10-08T07:52:07.229Z,9892.00
2022-10-08T07:53:07.232Z,10344.00
2022-10-08T07:54:07.227Z,10560.00
2022-10-08T07:55:07.210Z,10432.00
2022-10-08T07:56:07.238Z,10500.00
2022-10-08T07:57:07.177Z,11196.00
2022-10-08T07:58:07.178Z,11448.00
2022-10-08T07:59:07.170Z,11772.00
2022-10-08T08:00:07.138Z,12096.00
2022-10-08T08:01:07.258Z,13616.00
2022-10-08T08:02:07.193Z,14304.00
2022-10-08T08:03:07.144Z,14072.00
2022-10-08T08:04:07.101Z,14860.00
2022-10-08T08:05:07.081Z,15196.00
2022-10-08T08:06:07.147Z,15944.00
2022-10-08T08:07:07.076Z,15892.00
2022-10-08T08:08:07.059Z,18944.00
2022-10-08T08:09:07.052Z,16008.00
2022-10-08T08:10:07.042Z,15896.00
2022-10-08T08:11:07.131Z,18944.00
2022-10-08T08:12:07.013Z,21696.00
2022-10-08T08:13:07.010Z,23872.00
2022-10-08T08:14:06.986Z,21696.00
2022-10-08T08:15:06.978Z,22144.00
2022-10-08T08:16:07.147Z,21760.00
2022-10-08T08:17:06.958Z,22208.00
2022-10-08T08:18:06.942Z,21216.00
2022-10-08T08:19:06.935Z,21376.00
2022-10-08T08:20:06.924Z,24064.00
2022-10-08T08:21:06.947Z,26592.00
2022-10-08T08:22:06.881Z,24480.00
2022-10-08T08:23:06.871Z,24896.00
2022-10-08T08:24:06.881Z,24896.00
2022-10-08T08:25:06.857Z,34528.00
2022-10-08T08:26:06.895Z,28352.00
2022-10-08T08:27:06.844Z,31552.00
2022-10-08T08:28:06.879Z,34912.00
2022-10-08T08:29:06.818Z,26304.00
2022-10-08T08:30:06.813Z,25280.00
2022-10-08T08:31:06.839Z,23904.00
2022-10-08T08:32:06.825Z,22784.00
2022-10-08T08:33:06.783Z,24160.00
2022-10-08T08:34:06.769Z,25632.00
2022-10-08T08:35:06.772Z,22784.00
2022-10-08T08:36:06.796Z,25312.00
2022-10-08T08:37:06.720Z,26016.00
2022-10-08T08:38:06.721Z,25568.00
2022-10-08T08:39:06.705Z,26976.00
2022-10-08T08:40:06.709Z,28864.00
2022-10-08T08:41:11.875Z,29248.00
2022-10-08T08:42:07.701Z,32736.00
2022-10-08T08:43:06.655Z,34720.00
2022-10-08T08:44:06.669Z,36384.00
2022-10-08T08:45:06.705Z,36480.00
2022-10-08T08:46:06.682Z,33216.00
2022-10-08T08:47:06.618Z,29856.00
2022-10-08T08:48:06.604Z,29792.00
2022-10-08T08:49:06.615Z,32544.00
2022-10-08T08:50:06.588Z,29792.00
2022-10-08T08:51:06.604Z,24672.00
2022-10-08T08:52:06.543Z,26752.00
2022-10-08T08:53:06.531Z,18496.00
2022-10-08T08:54:06.550Z,16908.00
2022-10-08T08:55:06.557Z,16060.00
2022-10-08T08:56:06.556Z,15808.00
2022-10-08T08:57:06.495Z,15656.00
2022-10-08T08:58:10.782Z,15448.00
2022-10-08T08:59:06.474Z,15988.00
2022-10-08T09:00:06.465Z,16204.00
2022-10-08T09:01:06.539Z,16056.00
2022-10-08T09:02:06.442Z,16924.00
2022-10-08T09:03:06.419Z,16896.00
2022-10-08T09:04:06.442Z,17144.00
2022-10-08T09:05:06.491Z,17284.00
2022-10-08T09:06:06.454Z,17372.00
2022-10-08T09:07:06.394Z,16520.00
2022-10-08T09:08:06.384Z,14988.00
2022-10-08T09:09:06.372Z,14784.00
2022-10-08T09:10:06.372Z,13872.00
2022-10-08T09:11:06.385Z,13956.00
2022-10-08T09:12:06.347Z,14520.00
2022-10-08T09:13:06.318Z,15688.00
2022-10-08T09:14:06.329Z,16248.00
2022-10-08T09:15:06.310Z,15556.00
2022-10-08T09:16:06.334Z,14840.00
2022-10-08T09:17:06.361Z,14764.00
2022-10-08T09:18:06.250Z,14636.00
2022-10-08T09:19:06.261Z,14432.00
2022-10-08T09:20:06.246Z,14132.00
2022-10-08T09:21:06.273Z,13896.00
2022-10-08T09:22:06.204Z,13756.00
2022-10-08T09:23:06.197Z,14072.00
2022-10-08T09:24:06.209Z,15276.00
2022-10-08T09:25:06.181Z,16576.00
2022-10-08T09:26:06.216Z,16048.00
2022-10-08T09:27:06.161Z,14788.00
2022-10-08T09:28:06.237Z,15736.00
2022-10-08T09:29:06.153Z,16112.00
2022-10-08T09:30:06.148Z,17516.00
2022-10-08T09:31:08.919Z,22208.00
2022-10-08T09:32:06.110Z,19168.00
2022-10-08T09:33:06.079Z,17528.00
2022-10-08T09:34:06.076Z,14844.00
2022-10-08T09:35:06.078Z,13908.00
2022-10-08T09:36:06.126Z,13824.00
2022-10-08T09:37:06.063Z,14304.00
2022-10-08T09:38:06.364Z,15228.00
2022-10-08T09:39:06.023Z,16508.00
2022-10-08T09:40:06.024Z,18336.00
2022-10-08T09:41:06.080Z,22528.00
2022-10-08T09:42:06.010Z,27424.00
2022-10-08T09:43:05.978Z,19680.00
2022-10-08T09:44:06.005Z,19136.00
2022-10-08T09:45:05.962Z,18720.00
2022-10-08T09:46:06.031Z,18720.00
2022-10-08T09:47:05.940Z,18944.00
2022-10-08T09:48:05.923Z,19264.00
2022-10-08T09:49:05.925Z,19456.00
2022-10-08T09:50:05.889Z,19584.00
2022-10-08T09:51:05.923Z,19872.00
2022-10-08T09:52:05.884Z,20128.00
2022-10-08T09:53:05.844Z,20416.00
2022-10-08T09:54:05.897Z,21088.00
2022-10-08T09:55:05.864Z,23968.00
2022-10-08T09:56:05.912Z,26912.00
2022-10-08T09:57:05.849Z,29152.00
2022-10-08T09:58:05.833Z,30432.00
2022-10-08T09:59:05.799Z,31168.00
2022-10-08T10:00:05.806Z,34048.00
2022-10-08T10:01:05.864Z,33824.00
2022-10-08T10:02:05.792Z,32704.00
2022-10-08T10:03:05.751Z,33728.00
2022-10-08T10:04:05.801Z,33984.00
2022-10-08T10:05:05.747Z,36448.00
2022-10-08T10:06:05.776Z,36448.00
2022-10-08T10:07:05.714Z,38016.00
2022-10-08T10:08:05.716Z,37056.00
2022-10-08T10:09:05.699Z,34624.00
2022-10-08T10:10:05.685Z,29856.00
2022-10-08T10:11:05.722Z,29248.00
2022-10-08T10:12:05.674Z,28768.00
2022-10-08T10:13:05.651Z,28480.00
2022-10-08T10:14:05.641Z,27104.00
2022-10-08T10:15:05.637Z,26848.00
2022-10-08T10:16:05.657Z,27232.00
2022-10-08T10:17:05.677Z,27104.00
2022-10-08T10:18:05.612Z,26080.00
2022-10-08T10:19:05.588Z,25440.00
2022-10-08T10:20:05.559Z,24160.00
2022-10-08T10:21:05.582Z,24672.00
2022-10-08T10:22:05.538Z,26720.00
2022-10-08T10:23:05.548Z,26144.00
2022-10-08T10:24:05.516Z,26720.00
2022-10-08T10:25:05.536Z,23488.00
2022-10-08T10:26:06.701Z,22560.00
2022-10-08T10:27:05.500Z,21472.00
2022-10-08T10:28:05.537Z,22336.00
2022-10-08T10:29:05.530Z,21632.00
2022-10-08T10:30:05.477Z,21440.00
2022-10-08T10:31:05.534Z,26720.00
2022-10-08T10:32:05.446Z,32064.00
2022-10-08T10:33:05.417Z,33216.00
2022-10-08T10:34:05.438Z,35616.00
2022-10-08T10:35:05.414Z,38496.00
2022-10-08T10:36:05.404Z,42080.00
2022-10-08T10:37:05.450Z,44352.00
2022-10-08T10:38:05.384Z,45184.00
2022-10-08T10:39:05.356Z,43200.00
2022-10-08T10:40:05.336Z,39776.00
2022-10-08T10:41:05.347Z,43712.00
2022-10-08T10:42:05.407Z,38496.00
2022-10-08T10:43:05.329Z,23360.00
2022-10-08T10:44:05.299Z,36480.00
2022-10-08T10:45:05.319Z,24928.00
2022-10-08T10:46:05.311Z,43136.00
2022-10-08T10:47:05.321Z,51872.00
2022-10-08T10:48:05.258Z,52768.00
2022-10-08T10:49:05.234Z,57952.00
2022-10-08T10:50:05.235Z,55424.00
2022-10-08T10:51:05.223Z,51968.00
2022-10-08T10:52:05.264Z,57312.00
2022-10-08T10:53:05.193Z,57472.00
2022-10-08T10:54:05.199Z,54592.00
2022-10-08T10:55:05.161Z,58176.00
2022-10-08T10:56:05.192Z,63776.00
2022-10-08T10:57:05.222Z,70016.00
2022-10-08T10:58:05.141Z,71904.00
2022-10-08T10:59:05.149Z,81568.00
2022-10-08T11:00:05.125Z,78880.00
2022-10-08T11:01:05.184Z,74912.00
2022-10-08T11:02:05.152Z,69536.00
2022-10-08T11:03:05.150Z,63616.00
2022-10-08T11:04:05.081Z,55136.00
2022-10-08T11:05:05.075Z,65568.00
2022-10-08T11:06:05.058Z,65920.00
2022-10-08T11:07:05.105Z,66048.00
2022-10-08T11:08:05.039Z,59296.00
2022-10-08T11:09:05.029Z,59520.00
2022-10-08T11:10:05.013Z,46272.00
2022-10-08T11:11:05.046Z,36128.00
2022-10-08T11:12:05.033Z,49824.00
2022-10-08T11:13:04.962Z,50624.00
2022-10-08T11:14:04.978Z,42944.00
2022-10-08T11:15:04.942Z,53600.00
2022-10-08T11:16:04.990Z,55744.00
2022-10-08T11:17:04.977Z,56352.00
2022-10-08T11:18:04.935Z,47584.00
2022-10-08T11:19:04.901Z,61568.00
2022-10-08T11:20:04.896Z,63456.00
2022-10-08T11:21:04.871Z,62688.00
2022-10-08T11:22:04.927Z,54912.00
2022-10-08T11:23:04.886Z,55776.00
2022-10-08T11:24:04.847Z,52032.00
2022-10-08T11:25:04.861Z,44320.00
2022-10-08T11:26:21.799Z,35456.00
2022-10-08T11:27:05.871Z,22048.00
2022-10-08T11:28:04.847Z,25632.00
2022-10-08T11:29:04.812Z,22880.00
2022-10-08T11:30:04.795Z,22016.00
2022-10-08T11:31:04.823Z,21952.00
2022-10-08T11:32:04.825Z,29056.00
2022-10-08T11:33:04.753Z,26688.00
2022-10-08T11:34:04.753Z,30304.00
2022-10-08T11:35:04.724Z,24640.00
2022-10-08T11:36:04.745Z,29152.00
2022-10-08T11:37:04.751Z,30560.00
2022-10-08T11:38:04.689Z,29312.00
2022-10-08T11:39:04.674Z,28640.00
2022-10-08T11:40:04.680Z,26304.00
2022-10-08T11:41:04.648Z,23840.00
2022-10-08T11:42:04.745Z,22912.00
2022-10-08T11:43:04.639Z,31328.00
2022-10-08T11:44:04.621Z,35552.00
2022-10-08T11:45:04.637Z,28256.00
2022-10-08T11:46:04.648Z,27328.00
2022-10-08T11:47:04.637Z,23616.00
2022-10-08T11:48:09.708Z,22752.00
2022-10-08T11:49:05.591Z,22624.00
2022-10-08T11:50:04.579Z,27168.00
2022-10-08T11:51:04.556Z,24736.00
2022-10-08T11:52:04.584Z,24032.00
2022-10-08T11:53:04.519Z,32096.00
2022-10-08T11:54:04.498Z,27584.00
2022-10-08T11:55:04.526Z,25504.00
2022-10-08T11:56:04.495Z,25984.00
2022-10-08T11:57:04.535Z,33024.00
2022-10-08T11:58:08.884Z,22816.00
2022-10-08T11:59:04.459Z,19328.00
2022-10-08T12:00:08.747Z,16772.00
2022-10-08T12:01:04.445Z,13728.00
2022-10-08T12:02:04.545Z,11456.00
2022-10-08T12:03:04.585Z,10504.00
2022-10-08T12:04:04.431Z,11296.00
2022-10-08T12:05:04.411Z,15492.00
2022-10-08T12:06:04.393Z,20288.00
2022-10-08T12:07:04.420Z,23264.00
2022-10-08T12:08:04.380Z,22816.00
2022-10-08T12:09:04.360Z,20448.00
2022-10-08T12:10:04.360Z,18304.00
2022-10-08T12:11:04.323Z,16628.00
2022-10-08T12:12:04.369Z,15188.00
2022-10-08T12:13:04.316Z,14972.00
2022-10-08T12:14:04.291Z,16012.00
2022-10-08T12:15:04.287Z,17152.00
2022-10-08T12:16:04.321Z,16276.00
2022-10-08T12:17:04.297Z,14872.00
2022-10-08T12:18:04.239Z,13872.00
2022-10-08T12:19:04.222Z,11852.00
2022-10-08T12:20:04.240Z,10984.00
2022-10-08T12:21:04.215Z,11308.00
2022-10-08T12:22:04.268Z,12284.00
2022-10-08T12:23:04.189Z,13304.00
2022-10-08T12:24:04.207Z,13532.00